sensor_id;sensor_type;location;lat;lon;timestamp;temperature;humidity
48666;DHT22;34452;50.796;4.994;2023-05-10T00:00:38;13.60;99.90
48666;DHT22;34452;50.796;4.994;2023-05-10T00:03:04;13.60;99.90
48666;DHT22;34452;50.796;4.994;2023-05-10T00:05:31;13.60;99.90
48666;DHT22;34452;50.796;4.994;2023-05-10T00:07:56;13.60;99.90
48666;DHT22;34452;50.796;4.994;2023-05-10T00:10:22;13.60;99.90
48666;DHT22;34452;50.796;4.994;2023-05-10T00:12:48;13.50;99.90
48666;DHT22;34452;50.796;4.994;2023-05-10T00:15:13;13.40;99.90
48666;DHT22;34452;50.796;4.994;2023-05-10T00:17:39;13.40;99.90
48666;DHT22;34452;50.796;4.994;2023-05-10T00:20:06;13.40;99.90
48666;DHT22;34452;50.796;4.994;2023-05-10T00:22:32;13.40;99.90
48666;DHT22;34452;50.796;4.994;2023-05-10T00:24:58;13.30;99.90
48666;DHT22;34452;50.796;4.994;2023-05-10T00:27:24;13.30;99.90
48666;DHT22;34452;50.796;4.994;2023-05-10T00:29:50;13.30;99.90
48666;DHT22;34452;50.796;4.994;2023-05-10T00:32:15;13.30;99.90
48666;DHT22;34452;50.796;4.994;2023-05-10T00:34:42;13.40;99.90
48666;DHT22;34452;50.796;4.994;2023-05-10T00:37:07;13.40;99.90
48666;DHT22;34452;50.796;4.994;2023-05-10T00:39:33;13.40;99.90
48666;DHT22;34452;50.796;4.994;2023-05-10T00:41:59;13.40;99.90
48666;DHT22;34452;50.796;4.994;2023-05-10T00:44:25;13.40;99.90
48666;DHT22;34452;50.796;4.994;2023-05-10T00:46:51;13.40;99.90
48666;DHT22;34452;50.796;4.994;2023-05-10T00:49:17;13.50;99.90
48666;DHT22;34452;50.796;4.994;2023-05-10T00:51:44;13.50;99.90
48666;DHT22;34452;50.796;4.994;2023-05-10T00:54:12;13.50;99.90
48666;DHT22;34452;50.796;4.994;2023-05-10T00:56:39;13.50;99.90
48666;DHT22;34452;50.796;4.994;2023-05-10T00:59:06;13.50;99.90
48666;DHT22;34452;50.796;4.994;2023-05-10T01:01:32;13.50;99.90
48666;DHT22;34452;50.796;4.994;2023-05-10T01:03:58;13.50;99.90
48666;DHT22;34452;50.796;4.994;2023-05-10T01:06:24;13.50;99.90
48666;DHT22;34452;50.796;4.994;2023-05-10T01:08:50;13.50;99.90
48666;DHT22;34452;50.796;4.994;2023-05-10T01:11:15;13.50;99.90
48666;DHT22;34452;50.796;4.994;2023-05-10T01:13:43;13.50;99.90
48666;DHT22;34452;50.796;4.994;2023-05-10T01:16:11;13.50;99.90
48666;DHT22;34452;50.796;4.994;2023-05-10T01:18:40;13.40;99.90
48666;DHT22;34452;50.796;4.994;2023-05-10T01:27:14;13.40;99.90
48666;DHT22;34452;50.796;4.994;2023-05-10T01:30:01;13.40;99.90
48666;DHT22;34452;50.796;4.994;2023-05-10T01:43:57;13.40;99.90
48666;DHT22;34452;50.796;4.994;2023-05-10T01:52:06;13.40;99.90
48666;DHT22;34452;50.796;4.994;2023-05-10T01:54:33;13.50;99.90
48666;DHT22;34452;50.796;4.994;2023-05-10T01:57:03;13.50;99.90
48666;DHT22;34452;50.796;4.994;2023-05-10T01:59:34;13.50;99.90
48666;DHT22;34452;50.796;4.994;2023-05-10T02:02:21;13.50;99.90
48666;DHT22;34452;50.796;4.994;2023-05-10T02:04:49;13.50;99.90
48666;DHT22;34452;50.796;4.994;2023-05-10T02:07:16;13.50;99.90
48666;DHT22;34452;50.796;4.994;2023-05-10T02:09:45;13.50;99.90
48666;DHT22;34452;50.796;4.994;2023-05-10T02:12:13;13.50;99.90
48666;DHT22;34452;50.796;4.994;2023-05-10T02:14:41;13.50;99.90
48666;DHT22;34452;50.796;4.994;2023-05-10T02:17:08;13.50;99.90
48666;DHT22;34452;50.796;4.994;2023-05-10T02:19:36;13.50;99.90
48666;DHT22;34452;50.796;4.994;2023-05-10T02:22:03;13.50;99.90
48666;DHT22;34452;50.796;4.994;2023-05-10T02:24:29;13.60;99.90
48666;DHT22;34452;50.796;4.994;2023-05-10T02:26:57;13.60;99.90
48666;DHT22;34452;50.796;4.994;2023-05-10T02:29:25;13.60;99.90
48666;DHT22;34452;50.796;4.994;2023-05-10T02:31:53;13.60;99.90
48666;DHT22;34452;50.796;4.994;2023-05-10T02:34:21;13.60;99.90
48666;DHT22;34452;50.796;4.994;2023-05-10T02:36:48;13.60;99.90
48666;DHT22;34452;50.796;4.994;2023-05-10T02:39:15;13.60;99.90
48666;DHT22;34452;50.796;4.994;2023-05-10T02:41:43;13.60;99.90
48666;DHT22;34452;50.796;4.994;2023-05-10T02:44:11;13.60;99.90
48666;DHT22;34452;50.796;4.994;2023-05-10T02:46:37;13.60;99.90
48666;DHT22;34452;50.796;4.994;2023-05-10T02:49:03;13.60;99.90
48666;DHT22;34452;50.796;4.994;2023-05-10T02:51:31;13.60;99.90
48666;DHT22;34452;50.796;4.994;2023-05-10T02:53:57;13.60;99.90
48666;DHT22;34452;50.796;4.994;2023-05-10T02:56:31;13.60;99.90
48666;DHT22;34452;50.796;4.994;2023-05-10T02:58:58;13.60;99.90
48666;DHT22;34452;50.796;4.994;2023-05-10T03:01:24;13.60;99.90
48666;DHT22;34452;50.796;4.994;2023-05-10T03:03:50;13.60;99.90
48666;DHT22;34452;50.796;4.994;2023-05-10T03:06:15;13.60;99.90
48666;DHT22;34452;50.796;4.994;2023-05-10T03:08:42;13.60;99.90
48666;DHT22;34452;50.796;4.994;2023-05-10T03:19:55;13.60;99.90
48666;DHT22;34452;50.796;4.994;2023-05-10T03:22:25;13.60;99.90
48666;DHT22;34452;50.796;4.994;2023-05-10T03:24:55;13.60;99.90
48666;DHT22;34452;50.796;4.994;2023-05-10T03:27:22;13.60;99.90
48666;DHT22;34452;50.796;4.994;2023-05-10T03:29:50;13.60;99.90
48666;DHT22;34452;50.796;4.994;2023-05-10T03:32:16;13.50;99.90
48666;DHT22;34452;50.796;4.994;2023-05-10T03:34:42;13.50;99.90
48666;DHT22;34452;50.796;4.994;2023-05-10T03:37:09;13.50;99.90
48666;DHT22;34452;50.796;4.994;2023-05-10T03:39:35;13.50;99.90
48666;DHT22;34452;50.796;4.994;2023-05-10T03:42:01;13.50;99.90
48666;DHT22;34452;50.796;4.994;2023-05-10T03:44:27;13.50;99.90
48666;DHT22;34452;50.796;4.994;2023-05-10T03:46:52;13.50;99.90
48666;DHT22;34452;50.796;4.994;2023-05-10T03:49:18;13.50;99.90
48666;DHT22;34452;50.796;4.994;2023-05-10T03:51:44;13.50;99.90
48666;DHT22;34452;50.796;4.994;2023-05-10T03:54:10;13.50;99.90
48666;DHT22;34452;50.796;4.994;2023-05-10T03:56:35;13.50;99.90
48666;DHT22;34452;50.796;4.994;2023-05-10T03:59:01;13.60;99.90
48666;DHT22;34452;50.796;4.994;2023-05-10T04:01:33;13.50;99.90
48666;DHT22;34452;50.796;4.994;2023-05-10T04:03:59;13.50;99.90
48666;DHT22;34452;50.796;4.994;2023-05-10T04:06:24;13.50;99.90
48666;DHT22;34452;50.796;4.994;2023-05-10T04:08:50;13.40;99.90
48666;DHT22;34452;50.796;4.994;2023-05-10T04:11:16;13.40;99.90
48666;DHT22;34452;50.796;4.994;2023-05-10T04:13:42;13.40;99.90
48666;DHT22;34452;50.796;4.994;2023-05-10T04:16:08;13.40;99.90
48666;DHT22;34452;50.796;4.994;2023-05-10T04:18:34;13.40;99.90
48666;DHT22;34452;50.796;4.994;2023-05-10T04:21:00;13.30;99.90
48666;DHT22;34452;50.796;4.994;2023-05-10T04:23:27;13.30;99.90
48666;DHT22;34452;50.796;4.994;2023-05-10T04:25:59;13.30;99.90
48666;DHT22;34452;50.796;4.994;2023-05-10T04:28:25;13.30;99.90
48666;DHT22;34452;50.796;4.994;2023-05-10T04:30:51;13.20;99.90
48666;DHT22;34452;50.796;4.994;2023-05-10T04:33:17;13.20;99.90
48666;DHT22;34452;50.796;4.994;2023-05-10T04:35:42;13.10;99.90
48666;DHT22;34452;50.796;4.994;2023-05-10T04:38:10;13.20;99.90
48666;DHT22;34452;50.796;4.994;2023-05-10T04:40:35;13.10;99.90
48666;DHT22;34452;50.796;4.994;2023-05-10T04:43:01;13.10;99.90
48666;DHT22;34452;50.796;4.994;2023-05-10T04:45:27;13.20;99.90
48666;DHT22;34452;50.796;4.994;2023-05-10T04:47:52;13.20;99.90
48666;DHT22;34452;50.796;4.994;2023-05-10T04:50:18;13.10;99.90
48666;DHT22;34452;50.796;4.994;2023-05-10T04:52:44;13.10;99.90
48666;DHT22;34452;50.796;4.994;2023-05-10T04:55:10;13.10;99.90
48666;DHT22;34452;50.796;4.994;2023-05-10T04:57:36;13.10;99.90
48666;DHT22;34452;50.796;4.994;2023-05-10T05:00:02;13.10;99.90
48666;DHT22;34452;50.796;4.994;2023-05-10T05:02:27;13.10;99.90
48666;DHT22;34452;50.796;4.994;2023-05-10T05:04:55;13.10;99.90
48666;DHT22;34452;50.796;4.994;2023-05-10T05:07:23;13.10;99.90
48666;DHT22;34452;50.796;4.994;2023-05-10T05:09:48;13.20;99.90
48666;DHT22;34452;50.796;4.994;2023-05-10T05:12:14;13.10;99.90
48666;DHT22;34452;50.796;4.994;2023-05-10T05:14:40;13.20;99.90
48666;DHT22;34452;50.796;4.994;2023-05-10T05:17:06;13.20;99.90
48666;DHT22;34452;50.796;4.994;2023-05-10T05:19:32;13.20;99.90
48666;DHT22;34452;50.796;4.994;2023-05-10T05:21:58;13.20;99.90
48666;DHT22;34452;50.796;4.994;2023-05-10T05:24:24;13.20;99.90
48666;DHT22;34452;50.796;4.994;2023-05-10T05:26:50;13.30;99.90
48666;DHT22;34452;50.796;4.994;2023-05-10T05:29:15;13.30;99.90
48666;DHT22;34452;50.796;4.994;2023-05-10T05:31:41;13.30;99.90
48666;DHT22;34452;50.796;4.994;2023-05-10T05:34:07;13.30;99.90
48666;DHT22;34452;50.796;4.994;2023-05-10T05:36:36;13.30;99.90
48666;DHT22;34452;50.796;4.994;2023-05-10T05:39:03;13.30;99.90
48666;DHT22;34452;50.796;4.994;2023-05-10T05:41:29;13.30;99.90
48666;DHT22;34452;50.796;4.994;2023-05-10T05:43:55;13.30;99.90
48666;DHT22;34452;50.796;4.994;2023-05-10T05:46:20;13.30;99.90
48666;DHT22;34452;50.796;4.994;2023-05-10T05:48:46;13.20;99.90
48666;DHT22;34452;50.796;4.994;2023-05-10T05:51:12;13.30;99.90
48666;DHT22;34452;50.796;4.994;2023-05-10T05:53:38;13.20;99.90
48666;DHT22;34452;50.796;4.994;2023-05-10T05:56:04;13.20;99.90
48666;DHT22;34452;50.796;4.994;2023-05-10T05:58:29;13.20;99.90
48666;DHT22;34452;50.796;4.994;2023-05-10T06:00:55;13.20;99.90
48666;DHT22;34452;50.796;4.994;2023-05-10T06:03:21;13.20;99.90
48666;DHT22;34452;50.796;4.994;2023-05-10T06:05:47;13.20;99.90
48666;DHT22;34452;50.796;4.994;2023-05-10T06:08:13;13.20;99.90
48666;DHT22;34452;50.796;4.994;2023-05-10T06:10:38;13.20;99.90
48666;DHT22;34452;50.796;4.994;2023-05-10T06:13:04;13.30;99.90
48666;DHT22;34452;50.796;4.994;2023-05-10T06:15:30;13.30;99.90
48666;DHT22;34452;50.796;4.994;2023-05-10T06:17:56;13.30;99.90
48666;DHT22;34452;50.796;4.994;2023-05-10T06:20:21;13.30;99.90
48666;DHT22;34452;50.796;4.994;2023-05-10T06:22:47;13.40;99.90
48666;DHT22;34452;50.796;4.994;2023-05-10T06:25:13;13.40;99.90
48666;DHT22;34452;50.796;4.994;2023-05-10T06:27:40;13.50;99.90
48666;DHT22;34452;50.796;4.994;2023-05-10T06:30:06;13.50;99.90
48666;DHT22;34452;50.796;4.994;2023-05-10T06:32:33;13.60;99.90
48666;DHT22;34452;50.796;4.994;2023-05-10T06:34:59;13.60;99.90
48666;DHT22;34452;50.796;4.994;2023-05-10T06:37:25;13.70;99.90
48666;DHT22;34452;50.796;4.994;2023-05-10T06:39:50;13.70;99.90
48666;DHT22;34452;50.796;4.994;2023-05-10T06:42:16;13.70;99.90
48666;DHT22;34452;50.796;4.994;2023-05-10T06:44:42;13.70;99.90
48666;DHT22;34452;50.796;4.994;2023-05-10T06:47:09;13.70;99.90
48666;DHT22;34452;50.796;4.994;2023-05-10T06:49:34;13.60;99.90
48666;DHT22;34452;50.796;4.994;2023-05-10T06:52:00;13.60;99.90
48666;DHT22;34452;50.796;4.994;2023-05-10T06:54:26;13.60;99.90
48666;DHT22;34452;50.796;4.994;2023-05-10T06:56:52;13.50;99.90
48666;DHT22;34452;50.796;4.994;2023-05-10T06:59:18;13.50;99.90
48666;DHT22;34452;50.796;4.994;2023-05-10T07:01:44;13.40;99.90
48666;DHT22;34452;50.796;4.994;2023-05-10T07:04:10;13.40;99.90
48666;DHT22;34452;50.796;4.994;2023-05-10T07:06:36;13.30;99.90
48666;DHT22;34452;50.796;4.994;2023-05-10T07:09:02;13.30;99.90
48666;DHT22;34452;50.796;4.994;2023-05-10T07:11:27;13.20;99.90
48666;DHT22;34452;50.796;4.994;2023-05-10T07:13:53;13.10;99.90
48666;DHT22;34452;50.796;4.994;2023-05-10T07:16:19;13.10;99.90
48666;DHT22;34452;50.796;4.994;2023-05-10T07:18:45;13.00;99.90
48666;DHT22;34452;50.796;4.994;2023-05-10T07:21:10;12.90;99.90
48666;DHT22;34452;50.796;4.994;2023-05-10T07:23:36;12.90;99.90
48666;DHT22;34452;50.796;4.994;2023-05-10T07:26:02;12.90;99.90
48666;DHT22;34452;50.796;4.994;2023-05-10T07:28:28;12.80;99.90
48666;DHT22;34452;50.796;4.994;2023-05-10T07:30:53;12.80;99.90
48666;DHT22;34452;50.796;4.994;2023-05-10T07:33:19;12.80;99.90
48666;DHT22;34452;50.796;4.994;2023-05-10T07:35:45;12.80;99.90
48666;DHT22;34452;50.796;4.994;2023-05-10T07:38:10;12.80;99.90
48666;DHT22;34452;50.796;4.994;2023-05-10T07:40:36;12.80;99.90
48666;DHT22;34452;50.796;4.994;2023-05-10T07:43:02;12.80;99.90
48666;DHT22;34452;50.796;4.994;2023-05-10T07:45:28;12.80;99.90
48666;DHT22;34452;50.796;4.994;2023-05-10T07:47:54;12.80;99.90
48666;DHT22;34452;50.796;4.994;2023-05-10T07:50:20;12.80;99.90
48666;DHT22;34452;50.796;4.994;2023-05-10T07:52:46;12.80;99.90
48666;DHT22;34452;50.796;4.994;2023-05-10T07:55:12;12.80;99.90
48666;DHT22;34452;50.796;4.994;2023-05-10T07:57:38;12.80;99.90
48666;DHT22;34452;50.796;4.994;2023-05-10T08:00:05;12.70;99.90
48666;DHT22;34452;50.796;4.994;2023-05-10T08:02:31;12.70;99.90
48666;DHT22;34452;50.796;4.994;2023-05-10T08:04:56;12.70;99.90
48666;DHT22;34452;50.796;4.994;2023-05-10T08:07:24;12.70;99.90
48666;DHT22;34452;50.796;4.994;2023-05-10T08:09:50;12.70;99.90
48666;DHT22;34452;50.796;4.994;2023-05-10T08:12:16;12.70;99.90
48666;DHT22;34452;50.796;4.994;2023-05-10T08:14:42;12.80;99.90
48666;DHT22;34452;50.796;4.994;2023-05-10T08:17:08;12.80;99.90
48666;DHT22;34452;50.796;4.994;2023-05-10T08:19:34;12.80;99.90
48666;DHT22;34452;50.796;4.994;2023-05-10T08:22:00;12.80;99.90
48666;DHT22;34452;50.796;4.994;2023-05-10T08:24:26;12.80;99.90
48666;DHT22;34452;50.796;4.994;2023-05-10T08:26:51;12.80;99.90
48666;DHT22;34452;50.796;4.994;2023-05-10T08:29:17;12.90;99.90
48666;DHT22;34452;50.796;4.994;2023-05-10T08:31:43;12.90;99.90
48666;DHT22;34452;50.796;4.994;2023-05-10T08:34:09;13.00;99.90
48666;DHT22;34452;50.796;4.994;2023-05-10T08:36:35;13.00;99.90
48666;DHT22;34452;50.796;4.994;2023-05-10T08:39:01;13.10;99.90
48666;DHT22;34452;50.796;4.994;2023-05-10T08:41:27;13.10;99.90
48666;DHT22;34452;50.796;4.994;2023-05-10T08:43:54;13.20;99.90
48666;DHT22;34452;50.796;4.994;2023-05-10T08:46:22;13.30;99.90
48666;DHT22;34452;50.796;4.994;2023-05-10T08:48:50;13.30;99.90
48666;DHT22;34452;50.796;4.994;2023-05-10T08:51:19;13.30;99.90
48666;DHT22;34452;50.796;4.994;2023-05-10T08:53:47;13.40;99.90
48666;DHT22;34452;50.796;4.994;2023-05-10T08:56:13;13.40;99.90
48666;DHT22;34452;50.796;4.994;2023-05-10T08:58:41;13.40;99.90
48666;DHT22;34452;50.796;4.994;2023-05-10T09:01:07;13.50;99.90
48666;DHT22;34452;50.796;4.994;2023-05-10T09:03:34;13.50;99.90
48666;DHT22;34452;50.796;4.994;2023-05-10T09:06:00;13.60;99.90
48666;DHT22;34452;50.796;4.994;2023-05-10T09:08:26;13.70;99.90
48666;DHT22;34452;50.796;4.994;2023-05-10T09:10:53;13.70;99.90
48666;DHT22;34452;50.796;4.994;2023-05-10T09:13:19;13.80;99.90
48666;DHT22;34452;50.796;4.994;2023-05-10T09:15:46;13.80;99.90
48666;DHT22;34452;50.796;4.994;2023-05-10T09:18:12;13.80;99.90
48666;DHT22;34452;50.796;4.994;2023-05-10T09:20:38;13.80;99.90
48666;DHT22;34452;50.796;4.994;2023-05-10T09:23:04;13.80;99.90
48666;DHT22;34452;50.796;4.994;2023-05-10T09:25:30;13.80;99.90
48666;DHT22;34452;50.796;4.994;2023-05-10T09:27:58;13.80;99.90
48666;DHT22;34452;50.796;4.994;2023-05-10T09:30:27;13.80;99.90
48666;DHT22;34452;50.796;4.994;2023-05-10T09:32:53;13.80;99.90
48666;DHT22;34452;50.796;4.994;2023-05-10T09:35:21;13.70;99.90
48666;DHT22;34452;50.796;4.994;2023-05-10T09:37:50;13.70;99.90
48666;DHT22;34452;50.796;4.994;2023-05-10T09:40:18;13.70;99.90
48666;DHT22;34452;50.796;4.994;2023-05-10T09:45:38;13.70;99.90
48666;DHT22;34452;50.796;4.994;2023-05-10T09:48:04;13.80;99.90
48666;DHT22;34452;50.796;4.994;2023-05-10T09:50:30;13.70;99.90
48666;DHT22;34452;50.796;4.994;2023-05-10T09:53:14;13.70;99.90
48666;DHT22;34452;50.796;4.994;2023-05-10T09:55:44;13.70;99.90
48666;DHT22;34452;50.796;4.994;2023-05-10T09:58:10;13.60;99.90
48666;DHT22;34452;50.796;4.994;2023-05-10T10:00:39;13.60;99.90
48666;DHT22;34452;50.796;4.994;2023-05-10T10:03:05;13.70;99.90
48666;DHT22;34452;50.796;4.994;2023-05-10T10:05:32;13.70;99.90
48666;DHT22;34452;50.796;4.994;2023-05-10T10:08:00;13.70;99.90
48666;DHT22;34452;50.796;4.994;2023-05-10T10:10:26;13.80;99.90
48666;DHT22;34452;50.796;4.994;2023-05-10T10:12:53;13.80;99.90
48666;DHT22;34452;50.796;4.994;2023-05-10T10:15:21;13.80;99.90
48666;DHT22;34452;50.796;4.994;2023-05-10T10:17:48;13.70;99.90
48666;DHT22;34452;50.796;4.994;2023-05-10T10:20:15;13.80;99.90
48666;DHT22;34452;50.796;4.994;2023-05-10T10:22:40;13.80;99.90
48666;DHT22;34452;50.796;4.994;2023-05-10T10:25:07;13.90;99.90
48666;DHT22;34452;50.796;4.994;2023-05-10T10:30:49;13.90;99.90
48666;DHT22;34452;50.796;4.994;2023-05-10T10:34:05;13.90;99.90
48666;DHT22;34452;50.796;4.994;2023-05-10T10:36:49;14.00;99.90
48666;DHT22;34452;50.796;4.994;2023-05-10T10:39:15;14.10;99.90
48666;DHT22;34452;50.796;4.994;2023-05-10T10:41:53;14.10;99.90
48666;DHT22;34452;50.796;4.994;2023-05-10T10:44:36;14.20;99.90
48666;DHT22;34452;50.796;4.994;2023-05-10T10:49:38;14.30;99.90
48666;DHT22;34452;50.796;4.994;2023-05-10T10:52:35;14.40;99.90
48666;DHT22;34452;50.796;4.994;2023-05-10T10:55:21;14.40;99.90
48666;DHT22;34452;50.796;4.994;2023-05-10T10:57:51;14.50;99.90
48666;DHT22;34452;50.796;4.994;2023-05-10T11:02:44;14.70;99.90
48666;DHT22;34452;50.796;4.994;2023-05-10T11:11:04;15.00;99.90
48666;DHT22;34452;50.796;4.994;2023-05-10T11:13:46;15.00;99.90
48666;DHT22;34452;50.796;4.994;2023-05-10T11:16:24;15.00;99.90
48666;DHT22;34452;50.796;4.994;2023-05-10T11:19:09;15.00;99.90
48666;DHT22;34452;50.796;4.994;2023-05-10T11:24:30;15.00;99.90
48666;DHT22;34452;50.796;4.994;2023-05-10T11:26:56;15.00;99.90
48666;DHT22;34452;50.796;4.994;2023-05-10T11:29:22;14.90;99.90
48666;DHT22;34452;50.796;4.994;2023-05-10T11:31:49;14.90;99.90
48666;DHT22;34452;50.796;4.994;2023-05-10T11:34:32;14.90;99.90
48666;DHT22;34452;50.796;4.994;2023-05-10T11:36:59;14.80;99.90
48666;DHT22;34452;50.796;4.994;2023-05-10T11:39:27;14.80;99.90
48666;DHT22;34452;50.796;4.994;2023-05-10T11:41:53;14.80;99.90
48666;DHT22;34452;50.796;4.994;2023-05-10T11:44:19;14.90;99.90
48666;DHT22;34452;50.796;4.994;2023-05-10T11:46:45;14.80;99.90
48666;DHT22;34452;50.796;4.994;2023-05-10T11:49:11;14.80;99.90
48666;DHT22;34452;50.796;4.994;2023-05-10T11:51:36;14.80;99.90
48666;DHT22;34452;50.796;4.994;2023-05-10T11:54:07;14.80;99.90
48666;DHT22;34452;50.796;4.994;2023-05-10T11:56:34;14.80;99.90
48666;DHT22;34452;50.796;4.994;2023-05-10T11:59:00;14.90;99.90
48666;DHT22;34452;50.796;4.994;2023-05-10T12:01:28;14.90;99.90
48666;DHT22;34452;50.796;4.994;2023-05-10T12:03:54;14.90;99.90
48666;DHT22;34452;50.796;4.994;2023-05-10T12:06:20;14.90;99.90
48666;DHT22;34452;50.796;4.994;2023-05-10T12:08:47;14.90;99.90
48666;DHT22;34452;50.796;4.994;2023-05-10T12:11:15;14.90;99.90
48666;DHT22;34452;50.796;4.994;2023-05-10T12:13:42;14.90;99.90
48666;DHT22;34452;50.796;4.994;2023-05-10T12:16:22;15.00;99.90
48666;DHT22;34452;50.796;4.994;2023-05-10T12:18:49;14.90;99.90
48666;DHT22;34452;50.796;4.994;2023-05-10T12:21:17;14.90;99.90
48666;DHT22;34452;50.796;4.994;2023-05-10T12:23:45;15.00;99.90
48666;DHT22;34452;50.796;4.994;2023-05-10T12:26:11;15.00;99.90
48666;DHT22;34452;50.796;4.994;2023-05-10T12:28:38;15.10;99.90
48666;DHT22;34452;50.796;4.994;2023-05-10T12:31:06;15.10;99.90
48666;DHT22;34452;50.796;4.994;2023-05-10T12:33:50;15.10;99.90
48666;DHT22;34452;50.796;4.994;2023-05-10T12:36:16;15.20;99.90
48666;DHT22;34452;50.796;4.994;2023-05-10T12:38:48;15.20;99.90
48666;DHT22;34452;50.796;4.994;2023-05-10T12:41:16;15.30;99.90
48666;DHT22;34452;50.796;4.994;2023-05-10T12:43:42;15.30;99.90
48666;DHT22;34452;50.796;4.994;2023-05-10T12:46:38;15.40;99.90
48666;DHT22;34452;50.796;4.994;2023-05-10T12:49:04;15.50;99.90
48666;DHT22;34452;50.796;4.994;2023-05-10T12:51:30;15.50;99.90
48666;DHT22;34452;50.796;4.994;2023-05-10T12:53:56;15.50;99.90
48666;DHT22;34452;50.796;4.994;2023-05-10T12:56:22;15.60;99.90
48666;DHT22;34452;50.796;4.994;2023-05-10T12:58:48;15.60;99.90
48666;DHT22;34452;50.796;4.994;2023-05-10T13:01:14;15.70;99.90
48666;DHT22;34452;50.796;4.994;2023-05-10T13:03:39;15.70;99.90
48666;DHT22;34452;50.796;4.994;2023-05-10T13:06:05;15.80;99.90
48666;DHT22;34452;50.796;4.994;2023-05-10T13:08:32;15.90;99.90
48666;DHT22;34452;50.796;4.994;2023-05-10T13:11:00;16.00;99.90
48666;DHT22;34452;50.796;4.994;2023-05-10T13:13:26;16.20;99.90
48666;DHT22;34452;50.796;4.994;2023-05-10T13:15:51;16.30;99.90
48666;DHT22;34452;50.796;4.994;2023-05-10T13:18:17;16.50;99.90
48666;DHT22;34452;50.796;4.994;2023-05-10T13:20:43;16.70;99.90
48666;DHT22;34452;50.796;4.994;2023-05-10T13:23:09;16.80;99.90
48666;DHT22;34452;50.796;4.994;2023-05-10T13:25:35;16.90;99.90
48666;DHT22;34452;50.796;4.994;2023-05-10T13:28:02;17.20;99.90
48666;DHT22;34452;50.796;4.994;2023-05-10T13:30:28;17.40;99.90
48666;DHT22;34452;50.796;4.994;2023-05-10T13:32:54;17.60;99.90
48666;DHT22;34452;50.796;4.994;2023-05-10T13:35:20;17.80;99.90
48666;DHT22;34452;50.796;4.994;2023-05-10T13:37:46;18.00;99.90
48666;DHT22;34452;50.796;4.994;2023-05-10T13:40:12;18.10;99.90
48666;DHT22;34452;50.796;4.994;2023-05-10T13:42:37;18.10;99.90
48666;DHT22;34452;50.796;4.994;2023-05-10T13:45:04;18.30;99.90
48666;DHT22;34452;50.796;4.994;2023-05-10T13:47:29;18.40;99.90
48666;DHT22;34452;50.796;4.994;2023-05-10T13:49:55;18.30;99.90
48666;DHT22;34452;50.796;4.994;2023-05-10T13:52:21;18.20;99.90
48666;DHT22;34452;50.796;4.994;2023-05-10T13:54:47;18.10;99.90
48666;DHT22;34452;50.796;4.994;2023-05-10T13:57:13;18.30;99.90
48666;DHT22;34452;50.796;4.994;2023-05-10T13:59:39;18.30;99.90
48666;DHT22;34452;50.796;4.994;2023-05-10T14:02:06;18.40;99.90
48666;DHT22;34452;50.796;4.994;2023-05-10T14:04:33;18.40;99.90
48666;DHT22;34452;50.796;4.994;2023-05-10T14:07:01;18.30;99.90
48666;DHT22;34452;50.796;4.994;2023-05-10T14:09:27;18.40;99.90
48666;DHT22;34452;50.796;4.994;2023-05-10T14:11:52;18.50;99.90
48666;DHT22;34452;50.796;4.994;2023-05-10T14:14:18;18.70;99.90
48666;DHT22;34452;50.796;4.994;2023-05-10T14:16:44;18.60;99.90
48666;DHT22;34452;50.796;4.994;2023-05-10T14:19:10;18.60;99.90
48666;DHT22;34452;50.796;4.994;2023-05-10T14:21:36;19.00;99.90
48666;DHT22;34452;50.796;4.994;2023-05-10T14:24:02;19.30;99.90
48666;DHT22;34452;50.796;4.994;2023-05-10T14:26:28;19.30;99.90
48666;DHT22;34452;50.796;4.994;2023-05-10T14:28:54;18.90;99.90
48666;DHT22;34452;50.796;4.994;2023-05-10T14:31:20;18.90;99.90
48666;DHT22;34452;50.796;4.994;2023-05-10T14:33:46;18.80;99.90
48666;DHT22;34452;50.796;4.994;2023-05-10T14:36:12;18.70;99.90
48666;DHT22;34452;50.796;4.994;2023-05-10T14:38:39;18.70;99.90
48666;DHT22;34452;50.796;4.994;2023-05-10T14:41:05;18.60;99.90
48666;DHT22;34452;50.796;4.994;2023-05-10T14:43:30;18.50;99.90
48666;DHT22;34452;50.796;4.994;2023-05-10T14:45:56;18.40;99.90
48666;DHT22;34452;50.796;4.994;2023-05-10T14:48:22;18.40;99.90
48666;DHT22;34452;50.796;4.994;2023-05-10T14:50:48;18.70;99.90
48666;DHT22;34452;50.796;4.994;2023-05-10T14:53:15;19.30;99.90
48666;DHT22;34452;50.796;4.994;2023-05-10T14:55:41;19.70;99.90
48666;DHT22;34452;50.796;4.994;2023-05-10T14:58:06;19.80;99.90
48666;DHT22;34452;50.796;4.994;2023-05-10T15:00:32;20.20;99.90
48666;DHT22;34452;50.796;4.994;2023-05-10T15:02:58;20.10;99.90
48666;DHT22;34452;50.796;4.994;2023-05-10T15:05:24;19.90;99.90
48666;DHT22;34452;50.796;4.994;2023-05-10T15:07:49;19.60;99.90
48666;DHT22;34452;50.796;4.994;2023-05-10T15:10:17;19.30;99.90
48666;DHT22;34452;50.796;4.994;2023-05-10T15:12:43;19.00;99.90
48666;DHT22;34452;50.796;4.994;2023-05-10T15:15:09;18.70;99.90
48666;DHT22;34452;50.796;4.994;2023-05-10T15:17:34;18.40;99.90
48666;DHT22;34452;50.796;4.994;2023-05-10T15:20:01;18.20;99.90
48666;DHT22;34452;50.796;4.994;2023-05-10T15:22:29;18.00;99.90
48666;DHT22;34452;50.796;4.994;2023-05-10T15:24:56;17.90;99.90
48666;DHT22;34452;50.796;4.994;2023-05-10T15:27:23;17.90;99.90
48666;DHT22;34452;50.796;4.994;2023-05-10T15:29:49;17.80;99.90
48666;DHT22;34452;50.796;4.994;2023-05-10T15:32:15;17.70;99.90
48666;DHT22;34452;50.796;4.994;2023-05-10T15:34:41;17.60;99.90
48666;DHT22;34452;50.796;4.994;2023-05-10T15:37:07;17.50;99.90
48666;DHT22;34452;50.796;4.994;2023-05-10T15:39:32;17.50;99.90
48666;DHT22;34452;50.796;4.994;2023-05-10T15:41:58;17.40;99.90
48666;DHT22;34452;50.796;4.994;2023-05-10T15:44:24;17.30;99.90
48666;DHT22;34452;50.796;4.994;2023-05-10T15:46:50;17.30;99.90
48666;DHT22;34452;50.796;4.994;2023-05-10T15:49:15;17.30;99.90
48666;DHT22;34452;50.796;4.994;2023-05-10T15:51:42;17.60;99.90
48666;DHT22;34452;50.796;4.994;2023-05-10T15:54:08;17.90;99.90
48666;DHT22;34452;50.796;4.994;2023-05-10T15:56:35;18.20;99.90
48666;DHT22;34452;50.796;4.994;2023-05-10T15:59:01;18.80;99.90
48666;DHT22;34452;50.796;4.994;2023-05-10T16:01:27;19.10;99.90
48666;DHT22;34452;50.796;4.994;2023-05-10T16:03:53;19.60;99.90
48666;DHT22;34452;50.796;4.994;2023-05-10T16:06:18;19.60;99.90
48666;DHT22;34452;50.796;4.994;2023-05-10T16:08:44;19.40;99.90
48666;DHT22;34452;50.796;4.994;2023-05-10T16:11:10;19.30;99.90
48666;DHT22;34452;50.796;4.994;2023-05-10T16:13:36;19.30;99.90
48666;DHT22;34452;50.796;4.994;2023-05-10T16:16:02;18.90;99.90
48666;DHT22;34452;50.796;4.994;2023-05-10T16:18:28;18.90;99.90
48666;DHT22;34452;50.796;4.994;2023-05-10T16:20:54;18.60;99.90